Honolulu, HI

12:40 AM HST on October 24, 2014 (GMT -1000)
Pacific Heights | Change Station
CLOSE
Current Station
Personal Weather Station
Location: Honolulu, HI
Elevation: 528 ft
Nearby Weather Stations

Elev 528 ft 21.33 °N, 157.84 °W | Updated 17 seconds ago

Rain
Rain
73.2 °F
Feels Like 72 °F
N
6.0
Wind Variable Wind from ESE
Gusts 9.0 mph

Today
High -- | Low -- °F
--% Chance of Precip.
Yesterday
High -- | Low -- °F
Precip. -- in
6:30 AM 5:59 PM
New Moon, 0% visible
Pressure 30.04 in
Visibility 10.0 miles
Clouds Few 2600 ft
Scattered Clouds 4500 ft
Mostly Cloudy 5500 ft
Heat Index 72 °F
Dew Point 69 °F
Humidity 87%
Rainfall 0.02 in
Snow Depth Not available.
UV 0 out of 12
Pollen Not available.
PM2.5 Good
Flu Activity Sporadic
METAR PHNL 240953Z 06007KT 10SM FEW026 SCT045 BKN055 26/21 A3003 RMK AO2 SLP170 VCSH E T02610206 403060233

More Conditions Fewer Conditions

Pressure 30.04 in
Visibility 10.0 miles
Clouds Few 2600 ft
Scattered Clouds 4500 ft
Mostly Cloudy 5500 ft
Heat Index 72 °F
Dew Point 69 °F
Humidity 87%
Rainfall 0.02 in
Snow Depth Not available.
UV 0 out of 12
Pollen Not available.
PM2.5 Good
Flu Activity Sporadic
METAR PHNL 240953Z 06007KT 10SM FEW026 SCT045 BKN055 26/21 A3003 RMK AO2 SLP170 VCSH E T02610206 403060233

More Conditions Fewer Conditions

10-Day Weather Forecast

Almanac

Astronomy

Oct. 24, 2014 Rise Set
Actual Time 6:30 AM HST 5:59 PM HST
Civil Twilight 6:08 AM HST 6:22 PM HST
Nautical Twilight 5:41 AM HST 6:48 PM HST
Astronomical Twilight 5:15 AM HST 7:14 PM HST
Moon 7:16 AM HST 6:54 PM HST
Length of Visible Light 12h 14m
Length of Day
11h 29m
Tomorrow will be 1m 7s shorter.
New Moon, 0% of the Moon is Illuminated
Today
New Moon
Oct 30
First Quarter
Nov 6
Full
Nov 14
Last Quarter
Nov 22
New

Today's Extremes

State Highs State Lows

Community

WunderPhotos

Upload Photos

1,764,516 photos uploaded!

WunderBlogs® & News

Nearby

Air Quality

  Air Quality AQ Index Pollutant
Yesterday Good
PM2.5
Current Good
PM2.5
Friday Good
OZONE

Snow Depth

Station Depth Elevation
No new snow has been reported.

Earthquake Activity

City Distance Mag. Time & Date
No recent earthquake activity has been reported nearby.
Minimum magnitude displayed is 2.5.

Coastal Water Temperatures

Place Temperature
No Stations Reporting

Nearby Weather Stations